Time;durP1;ratioP1;P1;durP2;ratioP2;P2;SDS_P1;SDS_P2;PMS_P1;PMS_P2;Temp;Humidity;BMP_temperature;BMP_pressure;BME280_temperature;BME280_humidity;BME280_pressure;Samples;Min_cycle;Max_cycle;Signal;HPM_P1;HPM_P2
2022/09/11 00:00:34;;;;;;;;;;;23.00;91.50;;;;;;5051113;28;19983;-65
2022/09/11 00:03:00;;;;;;;;;;;22.90;91.40;;;;;;5053138;28;19929;-64
2022/09/11 00:05:26;;;;;;;;;;;22.60;91.40;;;;;;5052710;28;19947;-65
2022/09/11 00:07:51;;;;;;;;;;;23.10;91.50;;;;;;5037324;28;19921;-63
2022/09/11 00:10:17;;;;;;;;;;;22.80;91.40;;;;;;5050853;28;20091;-63
2022/09/11 00:12:43;;;;;;;;;;;22.80;91.30;;;;;;5048690;28;20374;-65
2022/09/11 00:15:09;;;;;;;;;;;22.90;91.50;;;;;;5053187;28;19925;-66
2022/09/11 00:17:35;;;;;;;;;;;24.10;91.60;;;;;;5052459;28;20385;-65
2022/09/11 00:20:01;;;;;;;;;;;23.00;91.40;;;;;;5042179;28;20012;-64
2022/09/11 00:22:26;;;;;;;;;;;22.80;91.40;;;;;;5034037;28;19925;-62
2022/09/11 00:24:53;;;;;;;;;;;22.80;91.40;;;;;;5048030;28;19931;-65
2022/09/11 00:27:19;;;;;;;;;;;22.90;91.30;;;;;;5052010;28;20346;-65
2022/09/11 00:29:45;;;;;;;;;;;22.90;91.40;;;;;;5055356;28;19967;-65
2022/09/11 00:32:11;;;;;;;;;;;23.00;91.40;;;;;;5057607;28;19927;-65
2022/09/11 00:34:38;;;;;;;;;;;22.90;91.40;;;;;;5056207;28;20024;-65
2022/09/11 00:37:03;;;;;;;;;;;22.80;91.30;;;;;;5056556;28;19925;-65
2022/09/11 00:39:29;;;;;;;;;;;22.90;91.50;;;;;;5055340;28;20085;-65
2022/09/11 00:41:55;;;;;;;;;;;22.90;91.30;;;;;;5057000;28;20001;-65
2022/09/11 00:44:23;;;;;;;;;;;23.00;91.40;;;;;;5056798;28;19924;-64
2022/09/11 00:46:50;;;;;;;;;;;22.90;90.80;;;;;;5033509;28;19925;-65
2022/09/11 00:49:26;;;;;;;;;;;22.90;91.50;;;;;;5042788;28;20264;-65
2022/09/11 00:51:54;;;;;;;;;;;23.10;90.90;;;;;;5052723;28;19924;-64
2022/09/11 00:54:21;;;;;;;;;;;23.00;91.50;;;;;;5055584;28;19928;-65
2022/09/11 00:56:46;;;;;;;;;;;23.20;91.50;;;;;;5053913;28;19933;-63
2022/09/11 00:59:12;;;;;;;;;;;22.50;91.20;;;;;;5056433;28;19931;-63
2022/09/11 01:01:38;;;;;;;;;;;22.80;91.20;;;;;;5056423;28;20410;-65
2022/09/11 01:04:04;;;;;;;;;;;22.80;91.30;;;;;;5056103;28;20413;-65
2022/09/11 01:06:30;;;;;;;;;;;23.00;91.30;;;;;;5055876;28;19972;-64
2022/09/11 01:08:58;;;;;;;;;;;22.60;91.30;;;;;;5048094;28;19921;-62
2022/09/11 01:11:36;;;;;;;;;;;22.80;91.30;;;;;;5056437;28;20003;-65
2022/09/11 01:14:10;;;;;;;;;;;22.80;90.80;;;;;;5041671;28;19960;-64
2022/09/11 01:16:41;;;;;;;;;;;22.80;90.70;;;;;;5055392;28;19940;-65
2022/09/11 01:19:13;;;;;;;;;;;23.00;90.80;;;;;;5047569;28;19987;-64
2022/09/11 01:21:59;;;;;;;;;;;22.70;90.70;;;;;;5044616;28;19971;-64
2022/09/11 01:24:30;;;;;;;;;;;22.80;91.40;;;;;;5055317;28;19932;-62
2022/09/11 01:27:14;;;;;;;;;;;22.60;91.30;;;;;;5055280;28;20322;-64
2022/09/11 01:29:40;;;;;;;;;;;22.60;90.70;;;;;;5056474;28;20344;-64
2022/09/11 01:32:12;;;;;;;;;;;22.70;91.20;;;;;;5054257;28;19925;-65
2022/09/11 01:34:46;;;;;;;;;;;22.90;90.70;;;;;;5055935;28;20018;-64
2022/09/11 01:37:13;;;;;;;;;;;22.90;90.70;;;;;;5052970;28;19940;-64
2022/09/11 01:39:49;;;;;;;;;;;22.90;91.30;;;;;;5052738;28;19928;-64
2022/09/11 01:42:16;;;;;;;;;;;22.60;91.30;;;;;;5054732;28;20310;-65
2022/09/11 01:44:42;;;;;;;;;;;23.00;91.40;;;;;;5036206;28;19925;-63
2022/09/11 01:47:09;;;;;;;;;;;23.00;91.40;;;;;;5059778;28;19983;-65
2022/09/11 01:49:49;;;;;;;;;;;22.80;91.20;;;;;;5039417;28;19924;-64
2022/09/11 01:52:16;;;;;;;;;;;22.70;90.70;;;;;;5046104;28;20015;-64
2022/09/11 01:54:45;;;;;;;;;;;22.90;91.40;;;;;;5019395;28;19924;-65
2022/09/11 01:57:12;;;;;;;;;;;23.10;91.40;;;;;;5050647;28;19925;-64
2022/09/11 01:59:39;;;;;;;;;;;22.90;91.40;;;;;;5042398;28;19951;-63
2022/09/11 02:02:06;;;;;;;;;;;22.90;91.40;;;;;;5054472;28;19931;-64
2022/09/11 02:04:34;;;;;;;;;;;22.70;91.30;;;;;;5041416;28;19932;-63
2022/09/11 02:07:02;;;;;;;;;;;22.80;91.30;;;;;;5036049;28;19929;-64
2022/09/11 02:09:33;;;;;;;;;;;22.90;91.30;;;;;;5031740;28;20371;-65
2022/09/11 02:11:58;;;;;;;;;;;22.70;90.70;;;;;;5050765;28;19925;-64
2022/09/11 02:14:24;;;;;;;;;;;22.80;91.20;;;;;;5033689;28;20371;-64
2022/09/11 02:16:50;;;;;;;;;;;22.70;91.10;;;;;;5044049;28;20371;-63
2022/09/11 02:19:17;;;;;;;;;;;22.70;91.30;;;;;;5050759;28;19978;-65
2022/09/11 02:21:43;;;;;;;;;;;22.70;91.30;;;;;;5028254;28;20012;-63
2022/09/11 02:24:09;;;;;;;;;;;22.60;91.20;;;;;;5048565;28;19991;-65
2022/09/11 02:26:39;;;;;;;;;;;22.80;91.20;;;;;;5038429;28;20426;-62
2022/09/11 02:29:05;;;;;;;;;;;22.90;90.70;;;;;;5054946;28;19986;-64
2022/09/11 02:31:31;;;;;;;;;;;22.50;91.10;;;;;;5054087;28;19925;-65
2022/09/11 02:33:56;;;;;;;;;;;22.60;91.10;;;;;;5051651;28;19929;-63
2022/09/11 02:36:22;;;;;;;;;;;22.60;91.10;;;;;;5035174;28;20383;-64
2022/09/11 02:38:56;;;;;;;;;;;22.70;91.10;;;;;;5036557;28;19925;-63
2022/09/11 02:41:23;;;;;;;;;;;22.90;90.70;;;;;;5051424;28;19972;-64
2022/09/11 02:43:50;;;;;;;;;;;22.70;91.30;;;;;;5017674;28;19925;-61
2022/09/11 02:46:19;;;;;;;;;;;22.90;91.30;;;;;;5018276;28;20310;-64
2022/09/11 02:48:49;;;;;;;;;;;22.80;90.60;;;;;;5048202;28;19925;-64
2022/09/11 02:51:27;;;;;;;;;;;22.80;91.30;;;;;;5051673;28;19928;-64
2022/09/11 02:54:12;;;;;;;;;;;22.60;90.60;;;;;;5052768;28;19929;-64
2022/09/11 02:56:39;;;;;;;;;;;22.80;90.60;;;;;;5019853;28;19925;-64
2022/09/11 02:59:09;;;;;;;;;;;22.80;91.20;;;;;;5033363;28;19975;-64
2022/09/11 03:02:04;;;;;;;;;;;22.40;91.10;;;;;;5042323;28;20023;-64
2022/09/11 03:04:30;;;;;;;;;;;22.70;90.60;;;;;;4989919;28;19976;-63
2022/09/11 03:06:56;;;;;;;;;;;22.70;91.00;;;;;;4973760;28;19930;-64
2022/09/11 03:09:21;;;;;;;;;;;22.50;91.00;;;;;;4976301;28;19934;-61
2022/09/11 03:11:47;;;;;;;;;;;22.70;91.10;;;;;;4977382;28;20004;-64
2022/09/11 03:14:13;;;;;;;;;;;22.60;91.10;;;;;;4992227;28;20358;-63
2022/09/11 03:16:39;;;;;;;;;;;22.50;90.90;;;;;;4960112;28;20013;-61
2022/09/11 03:19:06;;;;;;;;;;;22.60;91.00;;;;;;4992343;28;19932;-64
2022/09/11 03:21:31;;;;;;;;;;;22.70;91.00;;;;;;4990568;28;19952;-66
2022/09/11 03:23:57;;;;;;;;;;;22.70;91.00;;;;;;4991323;28;19929;-63
2022/09/11 03:26:23;;;;;;;;;;;22.80;91.00;;;;;;4992036;28;19976;-64
2022/09/11 03:28:49;;;;;;;;;;;22.60;91.10;;;;;;4992540;28;19932;-64
2022/09/11 03:31:15;;;;;;;;;;;22.80;91.10;;;;;;4992095;28;20406;-66
2022/09/11 03:33:40;;;;;;;;;;;22.70;91.10;;;;;;4992537;28;19925;-63
2022/09/11 03:36:06;;;;;;;;;;;22.90;91.10;;;;;;4991693;28;20331;-64
2022/09/11 03:38:32;;;;;;;;;;;22.60;90.90;;;;;;4991952;28;19981;-63
2022/09/11 03:40:57;;;;;;;;;;;22.50;91.00;;;;;;5008913;28;19928;-63
2022/09/11 03:43:23;;;;;;;;;;;22.50;91.00;;;;;;5038986;28;19925;-65
2022/09/11 03:45:49;;;;;;;;;;;22.70;91.10;;;;;;5049280;28;20274;-64
2022/09/11 03:48:15;;;;;;;;;;;22.90;91.10;;;;;;5047082;28;19931;-64
2022/09/11 03:50:40;;;;;;;;;;;22.90;91.10;;;;;;5049075;28;20047;-65
2022/09/11 03:53:06;;;;;;;;;;;22.70;91.00;;;;;;5042254;28;20011;-64
2022/09/11 03:55:32;;;;;;;;;;;22.80;91.10;;;;;;5052631;28;19947;-62
2022/09/11 03:57:58;;;;;;;;;;;22.60;91.00;;;;;;5046651;28;19925;-64
2022/09/11 04:00:24;;;;;;;;;;;22.70;91.10;;;;;;5044567;28;19925;-66
2022/09/11 04:02:49;;;;;;;;;;;22.70;91.10;;;;;;5052873;28;19955;-64
2022/09/11 04:05:15;;;;;;;;;;;22.70;91.00;;;;;;5037888;28;19925;-65
2022/09/11 04:07:41;;;;;;;;;;;22.50;90.90;;;;;;5050046;28;19991;-62
2022/09/11 04:10:07;;;;;;;;;;;22.70;91.00;;;;;;5048187;28;19925;-64
2022/09/11 04:12:32;;;;;;;;;;;22.80;90.90;;;;;;5051547;28;20375;-64
2022/09/11 04:14:58;;;;;;;;;;;22.60;90.90;;;;;;5053396;28;20011;-64
2022/09/11 04:17:23;;;;;;;;;;;22.60;91.00;;;;;;5039558;28;20409;-64
2022/09/11 04:19:49;;;;;;;;;;;22.70;91.00;;;;;;5039324;28;20028;-65
2022/09/11 04:22:15;;;;;;;;;;;22.70;91.00;;;;;;5047635;28;20405;-64
2022/09/11 04:24:40;;;;;;;;;;;22.80;91.00;;;;;;5045182;28;20374;-65
2022/09/11 04:27:06;;;;;;;;;;;22.60;90.90;;;;;;5050526;28;19921;-64
2022/09/11 04:29:32;;;;;;;;;;;22.70;91.00;;;;;;5035373;28;19932;-64
2022/09/11 04:31:57;;;;;;;;;;;22.60;91.00;;;;;;5068512;28;19920;-63
2022/09/11 04:34:24;;;;;;;;;;;22.30;90.90;;;;;;5039007;28;19932;-62
2022/09/11 04:36:49;;;;;;;;;;;22.60;91.00;;;;;;5053650;28;20048;-65
2022/09/11 04:39:15;;;;;;;;;;;22.70;91.00;;;;;;5049549;28;20037;-64
2022/09/11 04:41:41;;;;;;;;;;;22.50;90.90;;;;;;5058463;28;20024;-65
2022/09/11 04:44:06;;;;;;;;;;;22.40;91.00;;;;;;5044263;28;19925;-65
2022/09/11 04:46:33;;;;;;;;;;;22.70;91.00;;;;;;5051798;28;19925;-63
2022/09/11 04:48:58;;;;;;;;;;;22.70;91.00;;;;;;5026402;28;19930;-64
2022/09/11 04:51:29;;;;;;;;;;;22.70;91.00;;;;;;5033319;28;19929;-65
2022/09/11 04:53:56;;;;;;;;;;;22.70;90.50;;;;;;5033450;28;19948;-64
2022/09/11 04:56:25;;;;;;;;;;;22.30;90.90;;;;;;5057562;28;19926;-62
2022/09/11 04:58:52;;;;;;;;;;;22.60;90.40;;;;;;5047399;28;19929;-66
2022/09/11 05:01:18;;;;;;;;;;;22.30;91.00;;;;;;5045522;28;19932;-64
2022/09/11 05:03:44;;;;;;;;;;;22.70;90.90;;;;;;5015871;28;20023;-65
2022/09/11 05:06:10;;;;;;;;;;;22.60;90.80;;;;;;5031275;28;19933;-64
2022/09/11 05:08:36;;;;;;;;;;;22.50;90.80;;;;;;5051657;28;19925;-63
2022/09/11 05:11:04;;;;;;;;;;;22.70;90.90;;;;;;5051679;28;20325;-63
2022/09/11 05:13:30;;;;;;;;;;;23.00;91.00;;;;;;5048750;28;19935;-66
2022/09/11 05:16:01;;;;;;;;;;;22.40;90.90;;;;;;5051073;28;19931;-64
2022/09/11 05:18:27;;;;;;;;;;;22.60;90.30;;;;;;5042357;28;19932;-63
2022/09/11 05:21:12;;;;;;;;;;;22.50;90.70;;;;;;5061695;28;20302;-64
2022/09/11 05:23:38;;;;;;;;;;;22.50;90.30;;;;;;5053979;28;19925;-63
2022/09/11 05:26:04;;;;;;;;;;;22.60;90.90;;;;;;5036670;28;19925;-64
2022/09/11 05:28:30;;;;;;;;;;;22.60;90.90;;;;;;5054683;28;20393;-64
2022/09/11 05:30:55;;;;;;;;;;;22.40;90.80;;;;;;5052959;28;19929;-64
2022/09/11 05:33:24;;;;;;;;;;;22.60;90.80;;;;;;5034966;28;20338;-65
2022/09/11 05:35:50;;;;;;;;;;;22.50;90.80;;;;;;5041671;28;19932;-64
2022/09/11 05:38:17;;;;;;;;;;;22.40;90.90;;;;;;5047670;28;19925;-64
2022/09/11 05:40:47;;;;;;;;;;;22.50;90.90;;;;;;5048553;28;19979;-65
2022/09/11 05:43:14;;;;;;;;;;;22.50;90.90;;;;;;5042431;28;20322;-64
2022/09/11 05:45:40;;;;;;;;;;;22.80;90.80;;;;;;5050129;28;19932;-63
2022/09/11 05:48:07;;;;;;;;;;;22.60;90.90;;;;;;5055821;28;19925;-65
2022/09/11 05:50:33;;;;;;;;;;;22.40;90.80;;;;;;5051268;28;19924;-65
2022/09/11 05:52:59;;;;;;;;;;;22.40;90.70;;;;;;5055546;28;19925;-65
2022/09/11 05:55:24;;;;;;;;;;;22.80;90.80;;;;;;5054714;28;20405;-64
2022/09/11 05:57:53;;;;;;;;;;;22.80;90.70;;;;;;5052391;28;19933;-62
2022/09/11 06:00:19;;;;;;;;;;;22.80;90.20;;;;;;5055340;28;19933;-65
2022/09/11 06:02:47;;;;;;;;;;;22.60;90.70;;;;;;5042036;28;19925;-66
2022/09/11 06:05:14;;;;;;;;;;;22.30;90.60;;;;;;5055412;28;19925;-64
2022/09/11 06:07:39;;;;;;;;;;;22.40;90.60;;;;;;5055927;28;19929;-63
2022/09/11 06:10:06;;;;;;;;;;;22.80;90.70;;;;;;5055618;28;19947;-62
2022/09/11 06:12:31;;;;;;;;;;;22.80;90.50;;;;;;5075415;28;19931;-64
2022/09/11 06:14:57;;;;;;;;;;;22.90;90.70;;;;;;5055136;28;20302;-65
2022/09/11 06:17:23;;;;;;;;;;;22.70;90.50;;;;;;5048317;28;19932;-64
2022/09/11 06:19:48;;;;;;;;;;;22.80;90.50;;;;;;5051811;28;19927;-64
2022/09/11 06:22:14;;;;;;;;;;;22.80;90.40;;;;;;5051727;28;19940;-65
2022/09/11 06:24:40;;;;;;;;;;;22.70;90.50;;;;;;5035418;28;19948;-64
2022/09/11 06:27:05;;;;;;;;;;;22.80;90.40;;;;;;5031915;28;20378;-63
2022/09/11 06:29:31;;;;;;;;;;;22.80;90.30;;;;;;5056024;28;19924;-65
2022/09/11 06:31:57;;;;;;;;;;;22.90;90.40;;;;;;5043210;28;19967;-65
2022/09/11 06:34:23;;;;;;;;;;;22.40;90.30;;;;;;5042414;28;19968;-63
2022/09/11 06:36:50;;;;;;;;;;;22.80;90.20;;;;;;5049312;28;19971;-64
2022/09/11 06:39:15;;;;;;;;;;;22.90;90.50;;;;;;5054405;28;19924;-65
2022/09/11 06:41:41;;;;;;;;;;;22.90;90.30;;;;;;5051462;28;20040;-65
2022/09/11 06:44:08;;;;;;;;;;;23.10;90.70;;;;;;5033790;28;19925;-64
2022/09/11 06:46:34;;;;;;;;;;;23.10;90.30;;;;;;5045340;28;19978;-66
2022/09/11 06:49:01;;;;;;;;;;;23.10;90.30;;;;;;5065124;28;20371;-65
2022/09/11 06:51:26;;;;;;;;;;;23.20;90.60;;;;;;5065355;28;19932;-64
2022/09/11 06:53:54;;;;;;;;;;;23.20;90.40;;;;;;5039306;28;19924;-62
2022/09/11 06:56:21;;;;;;;;;;;23.30;90.40;;;;;;5042918;28;19995;-65
2022/09/11 06:58:46;;;;;;;;;;;23.20;90.20;;;;;;5042237;28;19925;-64
2022/09/11 07:01:13;;;;;;;;;;;23.40;90.10;;;;;;5044666;28;20331;-64
2022/09/11 07:03:43;;;;;;;;;;;23.50;90.30;;;;;;5040197;28;20514;-62
2022/09/11 07:06:09;;;;;;;;;;;23.10;89.10;;;;;;5045673;28;20334;-65
2022/09/11 07:08:35;;;;;;;;;;;23.60;90.20;;;;;;5034865;28;19925;-62
2022/09/11 07:11:02;;;;;;;;;;;23.60;90.00;;;;;;5037866;28;19925;-64
2022/09/11 07:13:28;;;;;;;;;;;23.40;90.10;;;;;;5051227;28;19924;-67
2022/09/11 07:16:04;;;;;;;;;;;23.80;90.10;;;;;;5048615;28;19968;-67
2022/09/11 07:18:37;;;;;;;;;;;23.40;88.60;;;;;;5069806;28;20283;-61
2022/09/11 07:21:04;;;;;;;;;;;23.90;88.60;;;;;;5040420;28;20294;-63
2022/09/11 07:23:29;;;;;;;;;;;23.80;89.90;;;;;;5041674;28;19933;-61
2022/09/11 07:25:55;;;;;;;;;;;23.90;89.60;;;;;;5050433;28;20393;-66
2022/09/11 07:28:21;;;;;;;;;;;23.80;88.90;;;;;;5037398;28;19925;-63
2022/09/11 07:30:47;;;;;;;;;;;23.90;88.60;;;;;;5053811;28;20394;-65
2022/09/11 07:33:13;;;;;;;;;;;24.10;89.20;;;;;;5054169;28;19931;-62
2022/09/11 07:35:38;;;;;;;;;;;23.90;88.90;;;;;;5043935;28;20015;-65
2022/09/11 07:38:04;;;;;;;;;;;24.10;88.70;;;;;;5048168;28;19925;-66
2022/09/11 07:40:30;;;;;;;;;;;24.20;88.70;;;;;;5046452;28;19964;-64
2022/09/11 07:42:55;;;;;;;;;;;24.40;88.40;;;;;;5039591;28;19977;-62
2022/09/11 07:45:22;;;;;;;;;;;24.10;88.20;;;;;;5033720;28;19925;-61
2022/09/11 07:47:47;;;;;;;;;;;24.40;88.00;;;;;;5045606;28;19964;-64
2022/09/11 07:50:13;;;;;;;;;;;24.80;88.00;;;;;;5053700;28;19931;-66
2022/09/11 07:52:39;;;;;;;;;;;24.80;87.80;;;;;;5053553;28;20345;-65
2022/09/11 07:55:04;;;;;;;;;;;24.70;87.80;;;;;;5054018;28;20016;-61
2022/09/11 07:57:31;;;;;;;;;;;24.90;87.30;;;;;;5052652;28;20462;-66
2022/09/11 07:59:56;;;;;;;;;;;25.00;87.60;;;;;;5053927;28;19928;-62
2022/09/11 08:02:22;;;;;;;;;;;25.00;87.30;;;;;;5053043;28;19997;-63
2022/09/11 08:04:48;;;;;;;;;;;24.90;87.20;;;;;;5028220;28;19925;-62
2022/09/11 08:07:13;;;;;;;;;;;24.80;86.90;;;;;;5045308;28;20004;-63
2022/09/11 08:09:39;;;;;;;;;;;25.00;87.10;;;;;;5015238;28;19933;-66
2022/09/11 08:12:05;;;;;;;;;;;25.20;87.60;;;;;;5034104;28;19929;-62
2022/09/11 08:14:30;;;;;;;;;;;25.40;86.80;;;;;;5041242;28;19968;-62
2022/09/11 08:16:56;;;;;;;;;;;25.40;86.70;;;;;;5045579;28;19971;-62
2022/09/11 08:19:22;;;;;;;;;;;25.10;86.60;;;;;;5053736;28;19931;-61
2022/09/11 08:21:48;;;;;;;;;;;25.40;86.60;;;;;;5019964;28;19940;-63
2022/09/11 08:24:15;;;;;;;;;;;25.50;87.00;;;;;;5053313;28;19928;-63
2022/09/11 08:26:41;;;;;;;;;;;25.20;86.60;;;;;;5053713;28;19927;-61
2022/09/11 08:29:07;;;;;;;;;;;25.40;86.70;;;;;;5053658;28;19924;-61
2022/09/11 08:31:33;;;;;;;;;;;25.40;86.50;;;;;;5034655;28;19932;-61
2022/09/11 08:33:59;;;;;;;;;;;25.60;86.80;;;;;;5053270;28;19929;-66
2022/09/11 08:36:25;;;;;;;;;;;25.40;86.10;;;;;;5054402;28;19931;-61
2022/09/11 08:38:51;;;;;;;;;;;25.30;86.30;;;;;;5033586;28;19985;-61
2022/09/11 08:41:22;;;;;;;;;;;25.70;86.30;;;;;;5033969;28;19925;-66
2022/09/11 08:43:52;;;;;;;;;;;25.50;85.10;;;;;;5036828;28;19970;-61
2022/09/11 08:46:19;;;;;;;;;;;25.20;86.30;;;;;;5033647;28;19932;-61
2022/09/11 08:49:00;;;;;;;;;;;25.60;86.50;;;;;;5051223;28;20287;-66
2022/09/11 08:51:26;;;;;;;;;;;25.40;85.00;;;;;;5037409;28;19925;-62
2022/09/11 08:53:53;;;;;;;;;;;25.80;86.10;;;;;;5037294;28;20318;-61
2022/09/11 08:56:21;;;;;;;;;;;25.50;86.30;;;;;;5055748;28;20371;-61
2022/09/11 08:59:05;;;;;;;;;;;25.70;86.90;;;;;;5057266;28;20298;-61
2022/09/11 09:01:35;;;;;;;;;;;25.40;84.50;;;;;;5051509;28;19925;-62
2022/09/11 09:04:07;;;;;;;;;;;25.90;86.20;;;;;;5074972;28;19924;-61
2022/09/11 09:06:42;;;;;;;;;;;25.60;84.40;;;;;;5056216;28;19941;-62
2022/09/11 09:09:26;;;;;;;;;;;25.40;84.30;;;;;;5056789;28;19931;-61
2022/09/11 09:11:55;;;;;;;;;;;25.60;84.40;;;;;;5056741;28;19933;-61
2022/09/11 09:14:24;;;;;;;;;;;25.60;84.20;;;;;;5053332;28;20278;-62
2022/09/11 09:17:11;;;;;;;;;;;25.50;84.10;;;;;;5052147;28;19936;-61
2022/09/11 09:19:37;;;;;;;;;;;25.50;84.10;;;;;;5035313;28;19929;-61
2022/09/11 09:22:21;;;;;;;;;;;25.50;85.30;;;;;;5041071;28;20008;-61
2022/09/11 09:24:47;;;;;;;;;;;25.70;84.20;;;;;;5056375;28;19931;-61
2022/09/11 09:27:14;;;;;;;;;;;25.50;85.40;;;;;;5053711;28;19932;-61
2022/09/11 09:29:40;;;;;;;;;;;25.50;85.50;;;;;;5056206;28;19928;-61
2022/09/11 09:32:07;;;;;;;;;;;25.30;84.80;;;;;;5056557;28;19924;-61
2022/09/11 09:34:34;;;;;;;;;;;25.50;85.30;;;;;;5055602;28;19925;-72
2022/09/11 09:37:03;;;;;;;;;;;25.40;85.30;;;;;;5051189;28;19928;-61
2022/09/11 09:39:28;;;;;;;;;;;25.70;85.50;;;;;;5065572;28;19924;-61
2022/09/11 09:42:10;;;;;;;;;;;25.30;84.70;;;;;;5048127;28;19925;-61
2022/09/11 09:44:41;;;;;;;;;;;25.40;83.80;;;;;;5056391;28;19931;-60
2022/09/11 09:47:13;;;;;;;;;;;25.40;83.80;;;;;;5056208;28;20347;-61
2022/09/11 09:49:39;;;;;;;;;;;25.30;85.10;;;;;;5069779;28;19975;-62
2022/09/11 09:52:18;;;;;;;;;;;25.60;84.80;;;;;;5055077;28;19921;-61
2022/09/11 09:55:00;;;;;;;;;;;25.60;83.70;;;;;;5055257;28;19948;-61
2022/09/11 09:57:35;;;;;;;;;;;25.50;83.40;;;;;;5053025;28;19931;-61
2022/09/11 10:00:11;;;;;;;;;;;25.50;83.30;;;;;;5037068;28;20282;-61
2022/09/11 10:02:37;;;;;;;;;;;25.40;83.20;;;;;;5037784;28;20019;-61
2022/09/11 10:05:15;;;;;;;;;;;25.30;84.50;;;;;;5055678;28;19925;-61
2022/09/11 10:07:45;;;;;;;;;;;25.50;83.40;;;;;;5055570;28;19932;-61
2022/09/11 10:10:19;;;;;;;;;;;25.20;83.20;;;;;;5054524;28;19924;-61
2022/09/11 10:12:44;;;;;;;;;;;25.40;84.60;;;;;;5055097;28;19931;-61
2022/09/11 10:15:16;;;;;;;;;;;25.30;84.30;;;;;;5055823;28;20004;-61
2022/09/11 10:17:41;;;;;;;;;;;25.20;84.50;;;;;;5065706;28;20289;-74
2022/09/11 10:20:24;;;;;;;;;;;24.90;84.20;;;;;;5050753;28;20020;-74
2022/09/11 10:22:50;;;;;;;;;;;25.00;83.00;;;;;;5054764;28;19931;-74
2022/09/11 10:25:20;;;;;;;;;;;25.10;83.70;;;;;;5055409;28;19925;-64
2022/09/11 10:27:58;;;;;;;;;;;25.40;83.10;;;;;;5054346;28;19925;-65
2022/09/11 10:30:30;;;;;;;;;;;25.30;83.20;;;;;;5049172;28;19932;-61
2022/09/11 10:32:57;;;;;;;;;;;24.90;82.90;;;;;;5034962;28;20024;-62
2022/09/11 10:35:25;;;;;;;;;;;25.10;85.00;;;;;;5017753;28;19925;-61
2022/09/11 10:37:59;;;;;;;;;;;25.20;84.20;;;;;;5038123;28;19925;-62
2022/09/11 10:40:24;;;;;;;;;;;24.90;83.00;;;;;;5045108;28;20011;-61
2022/09/11 10:42:50;;;;;;;;;;;25.00;83.90;;;;;;5052239;28;20012;-61
2022/09/11 10:45:16;;;;;;;;;;;25.20;84.20;;;;;;5053711;28;19925;-61
2022/09/11 10:47:42;;;;;;;;;;;25.10;84.20;;;;;;5045681;28;19925;-76
2022/09/11 10:50:16;;;;;;;;;;;24.80;84.00;;;;;;5051118;28;20032;-63
2022/09/11 10:53:05;;;;;;;;;;;25.10;82.90;;;;;;5045378;28;19924;-62
2022/09/11 10:55:41;;;;;;;;;;;24.90;82.70;;;;;;5047030;28;20394;-62
2022/09/11 10:58:15;;;;;;;;;;;24.70;84.00;;;;;;5059567;28;19951;-63
2022/09/11 11:00:40;;;;;;;;;;;24.90;82.80;;;;;;5068519;28;19925;-61
2022/09/11 11:03:20;;;;;;;;;;;25.10;84.00;;;;;;5054462;28;19924;-61
2022/09/11 11:05:45;;;;;;;;;;;25.10;82.90;;;;;;5038446;28;19937;-61
2022/09/11 11:08:35;;;;;;;;;;;25.00;83.60;;;;;;5054763;28;19921;-63
2022/09/11 11:11:13;;;;;;;;;;;25.20;82.40;;;;;;5050862;28;19932;-65
2022/09/11 11:13:44;;;;;;;;;;;24.80;83.40;;;;;;5053853;28;20375;-64
2022/09/11 11:16:19;;;;;;;;;;;25.10;81.90;;;;;;5052895;28;19974;-63
2022/09/11 11:18:51;;;;;;;;;;;25.20;81.90;;;;;;5068471;28;19925;-64
2022/09/11 11:21:31;;;;;;;;;;;25.20;82.10;;;;;;5042875;28;20023;-64
2022/09/11 11:23:58;;;;;;;;;;;25.20;82.20;;;;;;5041512;28;19976;-74
2022/09/11 11:26:32;;;;;;;;;;;25.00;83.10;;;;;;5034281;28;19971;-76
2022/09/11 11:29:04;;;;;;;;;;;25.30;82.10;;;;;;5041248;28;20011;-74
2022/09/11 11:31:36;;;;;;;;;;;25.60;82.50;;;;;;5039593;28;19925;-65
2022/09/11 11:34:20;;;;;;;;;;;25.40;83.40;;;;;;5036174;28;19948;-65
2022/09/11 11:36:46;;;;;;;;;;;25.20;81.80;;;;;;5049723;28;20299;-64
2022/09/11 11:39:18;;;;;;;;;;;25.10;83.10;;;;;;5048566;28;19925;-62
2022/09/11 11:41:49;;;;;;;;;;;25.00;81.70;;;;;;5054132;28;19979;-63
2022/09/11 11:44:17;;;;;;;;;;;25.20;83.00;;;;;;5053966;28;19924;-62
2022/09/11 11:46:48;;;;;;;;;;;25.10;83.00;;;;;;5026653;28;20440;-64
2022/09/11 11:49:30;;;;;;;;;;;25.10;81.50;;;;;;5043670;28;19925;-70
2022/09/11 11:52:12;;;;;;;;;;;25.00;81.60;;;;;;5037133;28;19931;-67
2022/09/11 11:54:38;;;;;;;;;;;24.90;81.80;;;;;;5033895;28;19925;-68
2022/09/11 11:57:12;;;;;;;;;;;24.90;83.40;;;;;;5051255;28;19921;-67
2022/09/11 11:59:43;;;;;;;;;;;25.00;82.00;;;;;;5069091;28;20456;-67
2022/09/11 12:02:09;;;;;;;;;;;25.10;82.10;;;;;;5036084;28;20377;-69
2022/09/11 12:04:44;;;;;;;;;;;25.00;83.00;;;;;;5069117;28;20036;-69
2022/09/11 12:07:29;;;;;;;;;;;24.90;81.90;;;;;;5053897;28;19947;-69
2022/09/11 12:09:56;;;;;;;;;;;24.90;82.00;;;;;;5034498;28;19925;-70
2022/09/11 12:12:22;;;;;;;;;;;25.30;83.80;;;;;;5062203;28;19926;-70
2022/09/11 12:14:48;;;;;;;;;;;24.90;83.00;;;;;;5049041;28;19971;-70
2022/09/11 12:17:18;;;;;;;;;;;24.80;83.50;;;;;;5049304;28;20327;-70
2022/09/11 12:20:02;;;;;;;;;;;25.10;82.30;;;;;;5032620;28;20346;-70
2022/09/11 12:22:32;;;;;;;;;;;25.30;82.50;;;;;;5033695;28;19925;-70
2022/09/11 12:24:58;;;;;;;;;;;25.10;82.40;;;;;;5036767;28;19931;-70
2022/09/11 12:27:33;;;;;;;;;;;25.10;83.20;;;;;;5020184;28;20376;-70
2022/09/11 12:30:29;;;;;;;;;;;25.10;82.50;;;;;;5048559;28;19951;-70
2022/09/11 12:32:55;;;;;;;;;;;24.80;82.40;;;;;;4996206;28;19925;-70
2022/09/11 12:35:40;;;;;;;;;;;25.40;84.30;;;;;;4963181;28;19926;-70
2022/09/11 12:38:06;;;;;;;;;;;25.00;82.60;;;;;;4996185;28;20021;-70
2022/09/11 12:40:36;;;;;;;;;;;25.00;83.70;;;;;;4996031;28;20012;-70
2022/09/11 12:43:18;;;;;;;;;;;24.80;82.60;;;;;;4995816;28;19926;-70
2022/09/11 12:45:47;;;;;;;;;;;25.00;82.70;;;;;;4994794;28;19926;-70
2022/09/11 12:48:15;;;;;;;;;;;25.00;83.30;;;;;;4995806;28;19926;-70
2022/09/11 12:50:48;;;;;;;;;;;25.10;83.00;;;;;;4995939;28;20071;-70
2022/09/11 12:53:15;;;;;;;;;;;24.90;84.30;;;;;;4995629;28;19958;-70
2022/09/11 12:55:42;;;;;;;;;;;25.00;84.50;;;;;;4979115;28;20299;-70
2022/09/11 12:58:17;;;;;;;;;;;24.90;83.60;;;;;;4979430;28;20296;-70
2022/09/11 13:00:44;;;;;;;;;;;24.90;83.10;;;;;;4995477;28;19925;-69
2022/09/11 13:03:20;;;;;;;;;;;25.00;84.60;;;;;;4995311;28;20407;-71
2022/09/11 13:05:53;;;;;;;;;;;25.20;83.30;;;;;;4978815;28;20012;-69
2022/09/11 13:08:22;;;;;;;;;;;24.80;83.10;;;;;;4985828;28;19933;-69
2022/09/11 13:10:48;;;;;;;;;;;24.90;84.60;;;;;;5057365;28;19975;-70
2022/09/11 13:13:33;;;;;;;;;;;24.80;84.10;;;;;;5056611;28;20074;-70
2022/09/11 13:16:18;;;;;;;;;;;24.80;83.10;;;;;;5055638;28;19998;-66
2022/09/11 13:18:44;;;;;;;;;;;24.90;83.30;;;;;;5036931;28;20295;-71
2022/09/11 13:21:10;;;;;;;;;;;24.70;83.90;;;;;;5050172;28;19925;-70
2022/09/11 13:23:36;;;;;;;;;;;25.10;84.80;;;;;;5038486;28;19947;-69
2022/09/11 13:26:03;;;;;;;;;;;25.00;84.70;;;;;;5071862;28;19924;-70
2022/09/11 13:28:30;;;;;;;;;;;25.10;84.70;;;;;;5054876;28;19929;-69
2022/09/11 13:30:59;;;;;;;;;;;25.20;84.40;;;;;;5071670;28;19925;-70
2022/09/11 13:33:27;;;;;;;;;;;25.00;84.50;;;;;;5055147;28;20400;-70
2022/09/11 13:35:54;;;;;;;;;;;25.20;84.60;;;;;;5055743;28;20353;-68
2022/09/11 13:38:22;;;;;;;;;;;25.10;84.60;;;;;;5048741;28;19925;-70
2022/09/11 13:40:47;;;;;;;;;;;25.20;84.90;;;;;;5054182;28;19929;-70
2022/09/11 13:43:14;;;;;;;;;;;25.10;84.40;;;;;;5056294;28;20374;-70
2022/09/11 13:45:40;;;;;;;;;;;25.00;84.70;;;;;;5072096;28;19925;-70
2022/09/11 13:48:18;;;;;;;;;;;25.40;84.40;;;;;;5055917;28;20044;-70
2022/09/11 13:50:43;;;;;;;;;;;25.10;83.40;;;;;;5072132;28;20003;-70
2022/09/11 13:53:09;;;;;;;;;;;24.90;84.20;;;;;;5071644;28;19992;-70
2022/09/11 13:55:35;;;;;;;;;;;25.20;84.60;;;;;;5039551;28;20335;-70
2022/09/11 13:58:01;;;;;;;;;;;25.20;84.40;;;;;;5035846;28;19976;-68
2022/09/11 14:00:37;;;;;;;;;;;25.10;84.80;;;;;;5036755;28;20012;-70
2022/09/11 14:03:04;;;;;;;;;;;25.30;83.60;;;;;;5036025;28;19948;-70
2022/09/11 14:05:32;;;;;;;;;;;25.30;85.00;;;;;;5036057;28;19925;-70
2022/09/11 14:07:58;;;;;;;;;;;25.20;83.90;;;;;;5036014;28;19947;-69
2022/09/11 14:10:24;;;;;;;;;;;25.20;84.80;;;;;;5036870;28;19925;-70
2022/09/11 14:12:56;;;;;;;;;;;25.10;84.60;;;;;;5036362;28;19940;-70
2022/09/11 14:15:30;;;;;;;;;;;25.20;83.60;;;;;;5055505;28;19925;-71
2022/09/11 14:18:00;;;;;;;;;;;25.10;83.60;;;;;;5070991;28;19931;-70
2022/09/11 14:20:28;;;;;;;;;;;25.10;84.90;;;;;;5052742;28;19925;-70
2022/09/11 14:22:54;;;;;;;;;;;25.30;84.70;;;;;;5037986;28;19924;-69
2022/09/11 14:25:20;;;;;;;;;;;25.00;84.70;;;;;;5054460;28;20341;-70